createdAt,value
2024-05-09T00:00:03.751Z,50.00
2024-05-09T00:01:03.079Z,50.94
2024-05-09T00:02:03.100Z,51.05
2024-05-09T00:03:03.035Z,50.20
2024-05-09T00:04:03.172Z,49.78
2024-05-09T00:05:03.317Z,50.00
2024-05-09T00:06:03.270Z,50.00
2024-05-09T00:07:03.039Z,50.07
2024-05-09T00:08:03.119Z,49.95
2024-05-09T00:09:03.979Z,50.43
2024-05-09T00:10:04.164Z,51.31
2024-05-09T00:11:03.230Z,50.08
2024-05-09T00:12:03.444Z,50.05
2024-05-09T00:13:03.291Z,50.52
2024-05-09T00:14:03.354Z,51.24
2024-05-09T00:15:03.382Z,53.03
2024-05-09T00:16:03.455Z,52.22
2024-05-09T00:17:03.584Z,51.39
2024-05-09T00:18:04.119Z,50.36
2024-05-09T00:19:03.746Z,50.00
2024-05-09T00:20:06.898Z,50.44
2024-05-09T00:21:04.846Z,50.46
2024-05-09T00:22:03.800Z,49.45
2024-05-09T00:23:03.807Z,48.31
2024-05-09T00:24:03.759Z,48.08
2024-05-09T00:25:03.754Z,48.26
2024-05-09T00:26:03.812Z,48.34
2024-05-09T00:27:03.760Z,46.31
2024-05-09T00:28:03.765Z,50.07
2024-05-09T00:29:03.821Z,50.40
2024-05-09T00:30:04.296Z,49.78
2024-05-09T00:31:03.846Z,50.44
2024-05-09T00:32:04.017Z,50.00
2024-05-09T00:33:04.721Z,50.69
2024-05-09T00:34:04.150Z,50.28
2024-05-09T00:35:04.143Z,50.04
2024-05-09T00:36:04.192Z,50.45
2024-05-09T00:37:04.239Z,50.00
2024-05-09T00:38:04.672Z,50.66
2024-05-09T00:39:04.384Z,50.60
2024-05-09T00:40:07.291Z,50.23
2024-05-09T00:41:04.505Z,50.76
2024-05-09T00:42:04.472Z,51.10
2024-05-09T00:43:04.460Z,50.33
2024-05-09T00:44:04.521Z,50.87
2024-05-09T00:45:04.491Z,50.64
2024-05-09T00:46:04.464Z,50.95
2024-05-09T00:47:04.526Z,50.79
2024-05-09T00:48:04.741Z,52.08
2024-05-09T00:49:04.555Z,52.10
2024-05-09T00:50:09.814Z,51.15
2024-05-09T00:51:05.500Z,51.16
2024-05-09T00:52:04.496Z,51.29
2024-05-09T00:53:04.545Z,51.27
2024-05-09T00:54:04.518Z,51.77
2024-05-09T00:55:04.525Z,52.32
2024-05-09T00:56:04.560Z,53.31
2024-05-09T00:57:04.528Z,54.13
2024-05-09T00:58:04.538Z,54.05
2024-05-09T00:59:04.555Z,54.17
2024-05-09T01:00:07.813Z,54.35
2024-05-09T01:01:05.709Z,54.37
2024-05-09T01:02:04.668Z,54.25
2024-05-09T01:03:04.811Z,54.47
2024-05-09T01:04:04.635Z,55.01
2024-05-09T01:05:04.717Z,55.60
2024-05-09T01:06:04.732Z,55.39
2024-05-09T01:07:04.595Z,55.68
2024-05-09T01:08:04.626Z,56.38
2024-05-09T01:09:04.624Z,56.77
2024-05-09T01:10:09.016Z,56.37
2024-05-09T01:11:05.751Z,56.38
2024-05-09T01:12:04.758Z,55.95
2024-05-09T01:13:04.852Z,55.87
2024-05-09T01:14:04.735Z,54.66
2024-05-09T01:15:04.706Z,55.20
2024-05-09T01:16:04.693Z,54.01
2024-05-09T01:17:04.762Z,54.10
2024-05-09T01:18:04.918Z,51.66
2024-05-09T01:19:04.972Z,51.33
2024-05-09T01:20:06.364Z,50.97
2024-05-09T01:21:05.863Z,51.00
2024-05-09T01:22:04.751Z,50.83
2024-05-09T01:23:04.785Z,50.42
2024-05-09T01:24:04.777Z,51.03
2024-05-09T01:25:04.749Z,50.26
2024-05-09T01:26:04.807Z,49.57
2024-05-09T01:27:04.757Z,47.90
2024-05-09T01:28:04.781Z,48.48
2024-05-09T01:29:04.765Z,47.32
2024-05-09T01:30:09.143Z,46.91
2024-05-09T01:31:04.800Z,47.41
2024-05-09T01:32:04.971Z,46.89
2024-05-09T01:33:05.949Z,47.82
2024-05-09T01:34:04.810Z,46.27
2024-05-09T01:35:04.836Z,45.17
2024-05-09T01:36:04.785Z,50.00
2024-05-09T01:37:04.770Z,50.67
2024-05-09T01:38:05.001Z,50.27
2024-05-09T01:39:04.841Z,50.99
2024-05-09T01:40:12.124Z,50.95
2024-05-09T01:41:05.826Z,50.97
2024-05-09T01:42:04.844Z,51.20
2024-05-09T01:43:04.864Z,51.82
2024-05-09T01:44:04.931Z,52.38
2024-05-09T01:45:05.426Z,53.67
2024-05-09T01:46:04.811Z,53.79
2024-05-09T01:47:04.822Z,53.24
2024-05-09T01:48:05.085Z,52.77
2024-05-09T01:49:04.885Z,53.69
2024-05-09T01:50:08.960Z,52.11
2024-05-09T01:51:06.042Z,52.13
2024-05-09T01:52:05.056Z,52.21
2024-05-09T01:53:05.229Z,51.32
2024-05-09T01:54:05.181Z,51.86
2024-05-09T01:55:06.699Z,51.64
2024-05-09T01:56:05.302Z,52.00
2024-05-09T01:57:05.336Z,50.87
2024-05-09T01:58:05.339Z,50.17
2024-05-09T01:59:05.370Z,51.68
2024-05-09T02:00:07.917Z,51.08
2024-05-09T02:01:05.448Z,51.66
2024-05-09T02:02:05.537Z,50.56
2024-05-09T02:03:05.474Z,50.94
2024-05-09T02:04:05.602Z,50.58
2024-05-09T02:05:05.596Z,51.30
2024-05-09T02:06:05.566Z,49.64
2024-05-09T02:07:05.369Z,50.29
2024-05-09T02:08:05.443Z,51.33
2024-05-09T02:09:05.354Z,51.41
2024-05-09T02:10:13.552Z,51.39
2024-05-09T02:11:06.384Z,50.66
2024-05-09T02:12:05.561Z,50.40
2024-05-09T02:13:05.333Z,51.43
2024-05-09T02:14:05.353Z,50.81
2024-05-09T02:15:05.352Z,50.10
2024-05-09T02:16:05.347Z,51.14
2024-05-09T02:17:05.449Z,50.89
2024-05-09T02:18:05.512Z,52.05
2024-05-09T02:19:05.546Z,50.71
2024-05-09T02:20:06.239Z,51.39
2024-05-09T02:21:05.449Z,52.64
2024-05-09T02:22:05.333Z,53.07
2024-05-09T02:23:05.611Z,52.22
2024-05-09T02:24:05.348Z,53.84
2024-05-09T02:25:05.354Z,54.64
2024-05-09T02:26:05.385Z,55.10
2024-05-09T02:27:05.356Z,55.42
2024-05-09T02:28:05.433Z,54.27
2024-05-09T02:29:05.410Z,55.55
2024-05-09T02:30:12.236Z,55.76
2024-05-09T02:31:06.396Z,55.78
2024-05-09T02:32:05.546Z,55.16
2024-05-09T02:33:05.691Z,55.77
2024-05-09T02:34:05.591Z,56.27
2024-05-09T02:35:05.397Z,56.76
2024-05-09T02:36:05.357Z,56.35
2024-05-09T02:37:05.416Z,56.80
2024-05-09T02:38:05.502Z,55.93
2024-05-09T02:39:05.383Z,55.88
2024-05-09T02:40:05.764Z,56.89
2024-05-09T02:41:05.408Z,56.57
2024-05-09T02:42:05.381Z,56.98
2024-05-09T02:43:05.671Z,55.88
2024-05-09T02:44:05.425Z,57.04
2024-05-09T02:45:05.382Z,56.05
2024-05-09T02:46:05.380Z,56.08
2024-05-09T02:47:05.548Z,56.11
2024-05-09T02:48:05.566Z,56.15
2024-05-09T02:49:05.530Z,56.82
2024-05-09T02:50:07.786Z,57.26
2024-05-09T02:51:05.668Z,55.15
2024-05-09T02:52:05.583Z,57.35
2024-05-09T02:53:05.842Z,57.38
2024-05-09T02:54:05.611Z,58.20
2024-05-09T02:55:05.660Z,60.14
2024-05-09T02:56:05.731Z,59.52
2024-05-09T02:57:05.784Z,58.39
2024-05-09T02:58:05.763Z,57.12
2024-05-09T02:59:05.807Z,57.91
2024-05-09T03:00:07.699Z,56.38
2024-05-09T03:01:06.852Z,56.44
2024-05-09T03:02:05.885Z,56.64
2024-05-09T03:03:06.029Z,57.26
2024-05-09T03:04:05.921Z,58.29
2024-05-09T03:05:05.821Z,60.05
2024-05-09T03:06:05.803Z,60.32
2024-05-09T03:07:05.827Z,61.21
2024-05-09T03:08:05.907Z,61.11
2024-05-09T03:09:05.835Z,62.61
2024-05-09T03:10:11.901Z,62.78
2024-05-09T03:11:06.928Z,62.83
2024-05-09T03:12:05.975Z,63.09
2024-05-09T03:13:05.898Z,63.57
2024-05-09T03:14:05.859Z,64.94
2024-05-09T03:15:05.818Z,66.99
2024-05-09T03:16:05.834Z,67.31
2024-05-09T03:17:05.887Z,68.71
2024-05-09T03:18:06.257Z,68.15
2024-05-09T03:19:05.933Z,69.00
2024-05-09T03:20:11.635Z,71.45
2024-05-09T03:21:06.940Z,71.46
2024-05-09T03:22:05.828Z,71.76
2024-05-09T03:23:06.351Z,71.84
2024-05-09T03:24:05.839Z,72.61
2024-05-09T03:25:05.849Z,74.03
2024-05-09T03:26:05.878Z,75.37
2024-05-09T03:27:05.899Z,74.81
2024-05-09T03:28:05.859Z,76.03
2024-05-09T03:29:05.915Z,76.31
2024-05-09T03:30:07.629Z,76.52
2024-05-09T03:31:05.867Z,77.38
2024-05-09T03:32:06.073Z,77.55
2024-05-09T03:33:06.005Z,78.11
2024-05-09T03:34:06.102Z,78.52
2024-05-09T03:35:06.012Z,79.58
2024-05-09T03:36:09.086Z,81.28
2024-05-09T03:37:06.026Z,81.34
2024-05-09T03:38:06.055Z,81.69
2024-05-09T03:39:06.024Z,83.00
2024-05-09T03:40:09.335Z,85.53
2024-05-09T03:41:07.037Z,81.58
2024-05-09T03:42:06.031Z,82.76
2024-05-09T03:43:06.040Z,85.23
2024-05-09T03:44:06.057Z,88.72
2024-05-09T03:45:06.019Z,81.79
2024-05-09T03:46:06.017Z,84.02
2024-05-09T03:47:06.133Z,89.03
2024-05-09T03:48:06.634Z,95.33
2024-05-09T03:49:06.101Z,103.38
2024-05-09T03:50:12.143Z,104.42
2024-05-09T03:51:07.218Z,104.46
2024-05-09T03:52:06.078Z,104.68
2024-05-09T03:53:06.151Z,104.87
2024-05-09T03:54:06.043Z,104.55
2024-05-09T03:55:06.034Z,103.71
2024-05-09T03:56:06.106Z,103.30
2024-05-09T03:57:06.073Z,103.80
2024-05-09T03:58:07.079Z,103.52
2024-05-09T03:59:06.208Z,103.69
2024-05-09T04:00:12.236Z,103.68
2024-05-09T04:01:07.137Z,103.67
2024-05-09T04:02:06.240Z,103.87
2024-05-09T04:03:08.230Z,104.58
2024-05-09T04:04:06.105Z,103.77
2024-05-09T04:05:06.097Z,104.23
2024-05-09T04:06:06.066Z,105.16
2024-05-09T04:07:06.125Z,106.35
2024-05-09T04:08:06.330Z,107.75
2024-05-09T04:09:06.090Z,108.14
2024-05-09T04:10:08.902Z,108.65
2024-05-09T04:11:06.174Z,108.66
2024-05-09T04:12:06.138Z,108.77
2024-05-09T04:13:06.130Z,109.37
2024-05-09T04:14:06.111Z,110.71
2024-05-09T04:15:08.128Z,112.34
2024-05-09T04:16:06.064Z,112.56
2024-05-09T04:17:06.120Z,112.62
2024-05-09T04:18:06.453Z,112.75
2024-05-09T04:19:06.263Z,112.99
2024-05-09T04:20:08.364Z,114.13
2024-05-09T04:21:07.554Z,115.15
2024-05-09T04:22:06.256Z,116.39
2024-05-09T04:23:07.000Z,116.41
2024-05-09T04:24:06.407Z,116.57
2024-05-09T04:25:06.499Z,118.71
2024-05-09T04:26:06.574Z,120.55
2024-05-09T04:27:06.667Z,121.97
2024-05-09T04:28:06.714Z,125.49
2024-05-09T04:29:06.828Z,126.80
2024-05-09T04:30:10.088Z,128.83
2024-05-09T04:31:07.860Z,128.88
2024-05-09T04:32:06.896Z,129.47
2024-05-09T04:33:08.405Z,131.48
2024-05-09T04:34:07.028Z,134.07
2024-05-09T04:35:06.890Z,139.21
2024-05-09T04:36:06.872Z,141.59
2024-05-09T04:37:07.540Z,141.17
2024-05-09T04:38:07.552Z,140.83
2024-05-09T04:39:14.854Z,50.00
2024-05-09T04:40:23.976Z,50.00
2024-05-09T04:41:15.880Z,50.00
2024-05-09T04:42:14.865Z,50.00
2024-05-09T04:43:14.858Z,50.00
2024-05-09T04:44:14.870Z,50.00
2024-05-09T04:45:14.844Z,50.00
2024-05-09T04:46:14.847Z,52.98
2024-05-09T04:47:14.962Z,52.08
2024-05-09T04:48:15.083Z,52.93
2024-05-09T04:49:15.005Z,50.41
2024-05-09T04:50:25.013Z,52.38
2024-05-09T04:51:15.979Z,51.22
2024-05-09T04:52:14.959Z,52.39
2024-05-09T04:53:15.048Z,52.53
2024-05-09T04:54:26.086Z,52.97
2024-05-09T04:55:15.961Z,52.42
2024-05-09T04:56:15.012Z,52.80
2024-05-09T04:57:14.962Z,53.45
2024-05-09T04:58:14.972Z,55.23
2024-05-09T04:59:14.994Z,52.69
2024-05-09T05:00:21.939Z,53.50
2024-05-09T05:01:16.041Z,52.64
2024-05-09T05:02:15.091Z,53.50
2024-05-09T05:03:16.274Z,55.09
2024-05-09T05:04:15.116Z,56.59
2024-05-09T05:05:15.314Z,59.68
2024-05-09T05:06:14.998Z,60.34
2024-05-09T05:07:14.988Z,58.88
2024-05-09T05:08:15.387Z,59.90
2024-05-09T05:09:14.994Z,58.14
2024-05-09T05:10:21.653Z,53.06
2024-05-09T05:11:16.120Z,51.55
2024-05-09T05:12:15.102Z,48.00
2024-05-09T05:13:15.027Z,42.54
2024-05-09T05:14:15.035Z,43.84
2024-05-09T05:15:15.015Z,42.48
2024-05-09T05:16:15.002Z,50.00
2024-05-09T05:17:15.067Z,50.70
2024-05-09T05:18:15.147Z,50.00
2024-05-09T05:19:17.489Z,50.52
2024-05-09T05:20:20.889Z,50.54
2024-05-09T05:21:16.054Z,50.48
2024-05-09T05:22:15.014Z,45.07
2024-05-09T05:23:15.382Z,40.86
2024-05-09T05:24:15.036Z,37.91
2024-05-09T05:25:15.019Z,34.76
2024-05-09T05:26:15.045Z,50.54
2024-05-09T05:27:15.017Z,52.17
2024-05-09T05:28:15.045Z,52.54
2024-05-09T05:29:17.224Z,51.38
2024-05-09T05:30:21.409Z,50.00
2024-05-09T05:31:15.116Z,50.07
2024-05-09T05:32:15.298Z,50.61
2024-05-09T05:33:15.440Z,51.08
2024-05-09T05:34:15.055Z,51.58
2024-05-09T05:35:15.088Z,51.74
2024-05-09T05:36:15.050Z,51.98
2024-05-09T05:37:15.063Z,53.93
2024-05-09T05:38:15.156Z,53.09
2024-05-09T05:39:15.147Z,55.31
2024-05-09T05:40:25.229Z,59.92
2024-05-09T05:41:16.254Z,60.00
2024-05-09T05:42:15.224Z,61.04
2024-05-09T05:43:15.247Z,62.30
2024-05-09T05:44:15.241Z,66.50
2024-05-09T05:45:15.224Z,72.29
2024-05-09T05:46:15.243Z,74.74
2024-05-09T05:47:15.326Z,77.85
2024-05-09T05:48:15.433Z,77.95
2024-05-09T05:49:15.388Z,78.61
2024-05-09T05:50:24.427Z,79.04
2024-05-09T05:51:16.545Z,79.09
2024-05-09T05:52:15.349Z,79.45
2024-05-09T05:53:15.726Z,79.77
2024-05-09T05:54:15.366Z,81.28
2024-05-09T05:55:15.351Z,83.23
2024-05-09T05:56:15.381Z,85.83
2024-05-09T05:57:15.368Z,91.11
2024-05-09T05:58:15.369Z,95.06
2024-05-09T05:59:15.769Z,96.81
2024-05-09T06:00:25.921Z,97.40
2024-05-09T06:01:16.411Z,97.44
2024-05-09T06:02:15.617Z,97.50
2024-05-09T06:03:15.874Z,94.55
2024-05-09T06:04:15.471Z,95.71
2024-05-09T06:05:15.462Z,95.13
2024-05-09T06:06:15.417Z,94.70
2024-05-09T06:07:15.417Z,95.97
2024-05-09T06:08:15.447Z,96.39
2024-05-09T06:09:15.427Z,96.42
2024-05-09T06:10:21.396Z,96.50
2024-05-09T06:11:17.096Z,96.36
2024-05-09T06:12:15.542Z,94.96
2024-05-09T06:13:15.442Z,92.70
2024-05-09T06:14:15.450Z,89.70
2024-05-09T06:15:15.443Z,88.71
2024-05-09T06:16:15.424Z,87.96
2024-05-09T06:17:15.475Z,88.29
2024-05-09T06:18:15.588Z,88.99
2024-05-09T06:19:15.526Z,90.65
2024-05-09T06:20:20.734Z,90.25
2024-05-09T06:21:16.687Z,90.33
2024-05-09T06:22:15.472Z,90.32
2024-05-09T06:23:15.502Z,86.86
2024-05-09T06:24:15.476Z,83.44
2024-05-09T06:25:15.428Z,80.98
2024-05-09T06:26:15.525Z,79.91
2024-05-09T06:27:15.477Z,76.52
2024-05-09T06:28:15.492Z,74.23
2024-05-09T06:29:15.567Z,74.37
2024-05-09T06:30:25.649Z,71.78
2024-05-09T06:31:16.456Z,71.81
2024-05-09T06:32:15.553Z,72.31
2024-05-09T06:33:16.687Z,73.25
2024-05-09T06:34:15.731Z,75.28
2024-05-09T06:35:15.491Z,79.28
2024-05-09T06:36:15.465Z,78.22
2024-05-09T06:37:15.494Z,77.07
2024-05-09T06:38:15.558Z,76.38
2024-05-09T06:39:15.473Z,78.22
2024-05-09T06:40:21.264Z,74.97
2024-05-09T06:41:16.516Z,75.02
2024-05-09T06:42:15.475Z,72.99
2024-05-09T06:43:17.635Z,72.63
2024-05-09T06:44:15.485Z,68.44
2024-05-09T06:45:15.474Z,64.11
2024-05-09T06:46:15.475Z,60.89
2024-05-09T06:47:15.682Z,55.39
2024-05-09T06:48:15.659Z,52.05
2024-05-09T06:49:15.771Z,50.15
2024-05-09T06:50:23.351Z,46.22
2024-05-09T06:51:16.621Z,44.02
2024-05-09T06:52:15.510Z,37.20
2024-05-09T06:53:15.567Z,30.34
2024-05-09T06:54:15.505Z,28.31
2024-05-09T06:55:15.498Z,25.28
2024-05-09T06:56:15.560Z,40.63
2024-05-09T06:57:15.508Z,51.27
2024-05-09T06:58:15.561Z,50.42
2024-05-09T06:59:15.617Z,50.00
2024-05-09T07:00:22.869Z,51.66
2024-05-09T07:01:16.632Z,49.94
2024-05-09T07:02:15.692Z,45.48
2024-05-09T07:03:17.640Z,42.83
2024-05-09T07:04:15.758Z,37.58
2024-05-09T07:05:15.876Z,36.62
2024-05-09T07:06:15.580Z,33.80
2024-05-09T07:07:15.561Z,28.68
2024-05-09T07:08:15.741Z,26.33
2024-05-09T07:09:15.558Z,48.48
2024-05-09T07:10:22.075Z,51.04
2024-05-09T07:11:16.685Z,51.08
2024-05-09T07:12:15.721Z,48.56
2024-05-09T07:13:15.978Z,48.80
2024-05-09T07:14:15.629Z,50.95
2024-05-09T07:15:15.548Z,53.73
2024-05-09T07:16:15.555Z,54.27
2024-05-09T07:17:15.723Z,54.35
2024-05-09T07:18:16.902Z,53.97
2024-05-09T07:19:15.664Z,51.46
2024-05-09T07:20:23.171Z,54.36
2024-05-09T07:21:16.730Z,51.55
2024-05-09T07:22:15.570Z,48.42
2024-05-09T07:23:16.022Z,42.78
2024-05-09T07:24:15.600Z,39.50
2024-05-09T07:25:15.568Z,35.75
2024-05-09T07:26:15.644Z,50.65
2024-05-09T07:27:15.600Z,51.14
2024-05-09T07:28:15.775Z,58.37
2024-05-09T07:29:15.654Z,63.78
2024-05-09T07:30:22.952Z,63.83
2024-05-09T07:31:16.616Z,62.97
2024-05-09T07:32:15.698Z,61.93
2024-05-09T07:33:15.936Z,58.38
2024-05-09T07:34:15.777Z,57.10
2024-05-09T07:35:15.776Z,53.89
2024-05-09T07:36:15.669Z,50.00
2024-05-09T07:37:15.654Z,50.00
2024-05-09T07:38:15.697Z,50.00
2024-05-09T07:39:15.620Z,50.03
2024-05-09T07:40:24.848Z,50.00
2024-05-09T07:41:16.709Z,47.50
2024-05-09T07:42:15.732Z,43.76
2024-05-09T07:43:16.341Z,40.92
2024-05-09T07:44:15.701Z,38.67
2024-05-09T07:45:38.931Z,37.27
2024-05-09T07:47:14.302Z,40.43
2024-05-09T07:48:28.945Z,40.96
2024-05-09T07:49:59.712Z,41.61
2024-05-09T07:50:56.053Z,41.64
2024-05-09T07:53:29.845Z,34.93
2024-05-09T07:53:37.893Z,37.50
2024-05-09T07:54:17.021Z,39.01
2024-05-09T07:55:15.973Z,36.78
2024-05-09T07:56:16.168Z,36.14
2024-05-09T07:57:15.854Z,35.33
2024-05-09T07:58:15.723Z,35.78
2024-05-09T07:59:15.724Z,50.31
2024-05-09T08:00:23.458Z,52.42
2024-05-09T08:01:16.913Z,52.59
2024-05-09T08:02:15.873Z,53.48
2024-05-09T08:03:15.938Z,57.94
2024-05-09T08:04:15.879Z,65.40
2024-05-09T08:05:15.920Z,74.79
2024-05-09T08:06:15.799Z,76.05
2024-05-09T08:07:15.787Z,76.00
2024-05-09T08:08:15.774Z,76.00
2024-05-09T08:09:20.803Z,73.52
2024-05-09T08:10:22.012Z,75.97
2024-05-09T08:11:16.796Z,76.04
2024-05-09T08:12:15.803Z,75.44
2024-05-09T08:13:15.884Z,75.52
2024-05-09T08:14:15.776Z,76.12
2024-05-09T08:15:15.849Z,87.07
2024-05-09T08:16:15.816Z,87.74
2024-05-09T08:17:15.791Z,83.09
2024-05-09T08:18:16.043Z,85.48
2024-05-09T08:19:15.885Z,89.78
2024-05-09T08:20:22.977Z,89.88
2024-05-09T08:21:16.827Z,89.92
2024-05-09T08:22:15.920Z,90.37
2024-05-09T08:23:15.843Z,90.74
2024-05-09T08:24:15.792Z,91.54
2024-05-09T08:25:15.977Z,96.05
2024-05-09T08:26:15.799Z,97.65
2024-05-09T08:27:15.819Z,95.72
2024-05-09T08:28:16.016Z,92.67
2024-05-09T08:29:15.806Z,90.44
2024-05-09T08:30:22.013Z,88.49
2024-05-09T08:31:16.884Z,85.24
2024-05-09T08:32:15.821Z,80.68
2024-05-09T08:33:16.033Z,71.75
2024-05-09T08:34:16.052Z,67.06
2024-05-09T08:35:15.808Z,65.19
2024-05-09T08:36:15.825Z,64.84
2024-05-09T08:37:22.117Z,62.59
2024-05-09T08:38:16.833Z,59.17
2024-05-09T08:39:15.838Z,55.40
2024-05-09T08:40:23.826Z,50.53
2024-05-09T08:41:16.834Z,49.83
2024-05-09T08:42:15.823Z,45.52
2024-05-09T08:43:15.904Z,42.39
2024-05-09T08:44:15.815Z,39.86
2024-05-09T08:45:15.829Z,37.78
2024-05-09T08:46:15.943Z,50.55
2024-05-09T08:47:15.848Z,50.32
2024-05-09T08:48:16.538Z,50.00
2024-05-09T08:49:15.966Z,50.00
2024-05-09T08:50:28.559Z,50.00
2024-05-09T08:51:16.836Z,50.02
2024-05-09T08:52:15.887Z,50.93
2024-05-09T08:53:15.833Z,52.07
2024-05-09T08:54:15.839Z,50.00
2024-05-09T08:55:15.907Z,44.15
2024-05-09T08:56:15.837Z,50.73
2024-05-09T08:57:15.851Z,50.98
2024-05-09T08:58:16.366Z,50.90
2024-05-09T08:59:15.846Z,53.31
2024-05-09T09:00:21.718Z,54.43
2024-05-09T09:01:16.974Z,54.46
2024-05-09T09:02:16.170Z,54.38
2024-05-09T09:03:15.992Z,52.43
2024-05-09T09:04:16.111Z,49.91
2024-05-09T09:05:16.112Z,46.79
2024-05-09T09:06:15.871Z,50.00
2024-05-09T09:07:15.906Z,50.00
2024-05-09T09:08:15.858Z,50.74
2024-05-09T09:09:15.874Z,50.14
2024-05-09T09:10:24.904Z,50.31
2024-05-09T09:11:16.936Z,47.78
2024-05-09T09:12:15.869Z,43.55
2024-05-09T09:13:16.135Z,39.18
2024-05-09T09:14:15.871Z,37.25
2024-05-09T09:15:15.873Z,36.63
2024-05-09T09:16:15.947Z,50.00
2024-05-09T09:17:15.993Z,50.22
2024-05-09T09:18:16.089Z,50.14
2024-05-09T09:19:16.114Z,51.95
2024-05-09T09:20:23.034Z,53.37
2024-05-09T09:21:16.906Z,50.47
2024-05-09T09:22:15.918Z,48.08
2024-05-09T09:23:15.922Z,46.71
2024-05-09T09:24:15.892Z,43.34
2024-05-09T09:25:15.919Z,40.16
2024-05-09T09:26:15.906Z,50.46
2024-05-09T09:27:15.899Z,52.34
2024-05-09T09:28:16.078Z,50.00
2024-05-09T09:29:15.903Z,51.00
2024-05-09T09:30:30.715Z,50.00
2024-05-09T09:31:16.955Z,50.04
2024-05-09T09:32:15.920Z,48.83
2024-05-09T09:33:16.047Z,50.01
2024-05-09T09:34:16.223Z,50.40
2024-05-09T09:35:15.916Z,50.04
2024-05-09T09:36:15.920Z,48.56
2024-05-09T09:37:15.963Z,50.20
2024-05-09T09:38:15.918Z,53.35
2024-05-09T09:39:15.922Z,53.28
2024-05-09T09:40:18.340Z,53.04
2024-05-09T09:41:16.141Z,53.72
2024-05-09T09:42:16.127Z,50.36
2024-05-09T09:43:16.264Z,51.55
2024-05-09T09:44:16.183Z,50.00
2024-05-09T09:45:16.198Z,48.30
2024-05-09T09:46:16.427Z,50.06
2024-05-09T09:47:16.315Z,51.24
2024-05-09T09:48:16.393Z,54.33
2024-05-09T09:49:16.393Z,53.92
2024-05-09T09:50:20.646Z,54.00
2024-05-09T09:51:17.331Z,53.28
2024-05-09T09:52:16.385Z,52.23
2024-05-09T09:53:16.314Z,50.77
2024-05-09T09:54:16.332Z,50.35
2024-05-09T09:55:16.470Z,49.19
2024-05-09T09:56:16.318Z,50.39
2024-05-09T09:57:16.332Z,53.72
2024-05-09T09:58:16.421Z,53.37
2024-05-09T09:59:16.325Z,51.02
2024-05-09T10:00:23.998Z,53.09
2024-05-09T10:01:17.553Z,53.11
2024-05-09T10:02:16.567Z,52.46
2024-05-09T10:03:16.386Z,50.17
2024-05-09T10:04:16.384Z,47.14
2024-05-09T10:05:16.420Z,50.93
2024-05-09T10:06:16.339Z,50.93
2024-05-09T10:07:16.389Z,50.71
2024-05-09T10:08:16.356Z,51.39
2024-05-09T10:09:16.355Z,52.69
2024-05-09T10:10:19.934Z,54.94
2024-05-09T10:11:17.395Z,51.04
2024-05-09T10:12:16.401Z,51.80
2024-05-09T10:13:16.523Z,51.85
2024-05-09T10:14:16.352Z,51.10
2024-05-09T10:15:16.361Z,51.93
2024-05-09T10:16:16.349Z,50.56
2024-05-09T10:17:16.377Z,51.35
2024-05-09T10:18:16.650Z,53.21
2024-05-09T10:19:16.422Z,52.00
2024-05-09T10:20:21.854Z,51.39
2024-05-09T10:21:17.356Z,48.67
2024-05-09T10:22:16.425Z,47.74
2024-05-09T10:23:16.352Z,45.38
2024-05-09T10:24:16.337Z,42.78
2024-05-09T10:25:16.439Z,42.18
2024-05-09T10:26:16.351Z,50.49
2024-05-09T10:27:16.341Z,52.24
2024-05-09T10:28:16.394Z,50.99
2024-05-09T10:29:16.351Z,52.39
2024-05-09T10:30:25.764Z,48.65
2024-05-09T10:31:17.418Z,46.97
2024-05-09T10:32:16.367Z,45.23
2024-05-09T10:33:16.517Z,47.78
2024-05-09T10:34:16.531Z,48.12
2024-05-09T10:35:16.359Z,55.21
2024-05-09T10:36:17.086Z,51.62
2024-05-09T10:37:16.410Z,49.74
2024-05-09T10:38:16.396Z,50.00
2024-05-09T10:39:16.379Z,50.74
2024-05-09T10:40:23.390Z,51.89
2024-05-09T10:41:17.379Z,51.67
2024-05-09T10:42:16.364Z,51.90
2024-05-09T10:43:16.561Z,51.49
2024-05-09T10:44:16.374Z,52.78
2024-05-09T10:45:16.430Z,49.83
2024-05-09T10:46:16.817Z,51.55
2024-05-09T10:47:16.453Z,52.77
2024-05-09T10:48:16.469Z,52.19
2024-05-09T10:49:16.538Z,50.78
2024-05-09T10:50:22.614Z,50.42
2024-05-09T10:51:17.385Z,45.74
2024-05-09T10:52:16.532Z,40.00
2024-05-09T10:53:16.392Z,38.00
2024-05-09T10:54:16.384Z,31.81
2024-05-09T10:55:16.448Z,28.05
2024-05-09T10:56:16.538Z,45.85
2024-05-09T10:57:16.390Z,53.73
2024-05-09T10:58:16.434Z,53.35
2024-05-09T10:59:16.393Z,55.33
2024-05-09T11:00:26.966Z,50.25
2024-05-09T11:01:17.511Z,50.32
2024-05-09T11:02:16.503Z,50.37
2024-05-09T11:03:16.418Z,48.93
2024-05-09T11:04:16.763Z,48.62
2024-05-09T11:05:16.539Z,44.13
2024-05-09T11:06:16.402Z,51.76
2024-05-09T11:07:16.501Z,50.77
2024-05-09T11:08:16.405Z,49.55
2024-05-09T11:09:16.422Z,51.48
2024-05-09T11:10:24.848Z,50.00
2024-05-09T11:11:17.492Z,50.04
2024-05-09T11:12:16.433Z,48.43
2024-05-09T11:13:16.421Z,46.65
2024-05-09T11:14:16.406Z,45.32
2024-05-09T11:15:16.429Z,46.08
2024-05-09T11:16:16.664Z,42.90
2024-05-09T11:17:16.452Z,36.46
2024-05-09T11:18:16.632Z,36.28
2024-05-09T11:19:16.639Z,33.27
2024-05-09T11:20:22.955Z,50.27
2024-05-09T11:21:17.437Z,45.67
2024-05-09T11:22:16.544Z,46.24
2024-05-09T11:23:16.449Z,46.78
2024-05-09T11:24:16.424Z,46.64
2024-05-09T11:25:16.487Z,44.10
2024-05-09T11:26:16.441Z,51.75
2024-05-09T11:27:16.459Z,51.12
2024-05-09T11:28:16.495Z,51.43
2024-05-09T11:29:18.688Z,50.56
2024-05-09T11:30:23.793Z,52.67
2024-05-09T11:31:16.479Z,52.78
2024-05-09T11:32:16.570Z,52.90
2024-05-09T11:33:16.538Z,53.12
2024-05-09T11:34:16.631Z,51.88
2024-05-09T11:35:16.479Z,52.53
2024-05-09T11:36:16.449Z,55.25
2024-05-09T11:37:16.571Z,55.52
2024-05-09T11:38:16.448Z,57.71
2024-05-09T11:39:16.532Z,59.97
2024-05-09T11:40:21.562Z,56.80
2024-05-09T11:41:17.493Z,56.85
2024-05-09T11:42:16.490Z,56.17
2024-05-09T11:43:16.749Z,57.09
2024-05-09T11:44:16.529Z,57.40
2024-05-09T11:45:16.551Z,57.07
2024-05-09T11:46:16.711Z,58.06
2024-05-09T11:47:16.581Z,56.55
2024-05-09T11:48:16.716Z,54.71
2024-05-09T11:49:16.770Z,58.57
2024-05-09T11:50:26.658Z,60.64
2024-05-09T11:51:17.569Z,60.77
2024-05-09T11:52:16.690Z,61.27
2024-05-09T11:53:16.597Z,62.09
2024-05-09T11:54:16.614Z,65.59
2024-05-09T11:55:16.813Z,71.74
2024-05-09T11:56:16.603Z,73.85
2024-05-09T11:57:16.617Z,70.99
2024-05-09T11:58:16.669Z,75.42
2024-05-09T11:59:16.573Z,76.42
2024-05-09T12:00:24.601Z,76.17
2024-05-09T12:01:17.692Z,75.66
2024-05-09T12:02:17.029Z,73.79
2024-05-09T12:03:16.795Z,74.50
2024-05-09T12:04:16.928Z,70.41
2024-05-09T12:05:16.959Z,64.76
2024-05-09T12:06:16.745Z,67.35
2024-05-09T12:07:16.826Z,62.40
2024-05-09T12:08:16.741Z,62.15
2024-05-09T12:09:16.734Z,61.48
2024-05-09T12:10:22.179Z,61.49
2024-05-09T12:11:17.833Z,61.53
2024-05-09T12:12:16.788Z,61.91
2024-05-09T12:13:16.921Z,62.21
2024-05-09T12:14:16.775Z,63.10
2024-05-09T12:15:17.036Z,61.79
2024-05-09T12:16:17.068Z,66.76
2024-05-09T12:17:16.893Z,69.39
2024-05-09T12:18:16.841Z,68.62
2024-05-09T12:19:16.889Z,67.11
2024-05-09T12:20:25.040Z,68.46
2024-05-09T12:21:17.889Z,68.42
2024-05-09T12:22:17.011Z,68.81
2024-05-09T12:23:16.894Z,69.21
2024-05-09T12:24:18.605Z,69.61
2024-05-09T12:25:17.074Z,71.69
2024-05-09T12:26:16.898Z,72.04
2024-05-09T12:27:16.912Z,72.09
2024-05-09T12:28:17.240Z,70.14
2024-05-09T12:29:16.907Z,71.98
2024-05-09T12:30:24.708Z,72.12
2024-05-09T12:31:18.008Z,68.04
2024-05-09T12:32:16.995Z,69.77
2024-05-09T12:33:17.094Z,68.50
2024-05-09T12:34:17.069Z,66.52
2024-05-09T12:35:16.961Z,68.68
2024-05-09T12:36:16.989Z,65.69
2024-05-09T12:37:17.079Z,65.46
2024-05-09T12:38:17.018Z,68.12
2024-05-09T12:39:16.993Z,65.42
2024-05-09T12:40:26.207Z,64.74
2024-05-09T12:41:17.988Z,64.28
2024-05-09T12:42:26.535Z,63.40
2024-05-09T12:43:18.081Z,60.90
2024-05-09T12:44:17.059Z,61.29
2024-05-09T12:45:17.120Z,64.98
2024-05-09T12:46:17.045Z,65.97
2024-05-09T12:47:17.123Z,66.13
2024-05-09T12:48:17.180Z,66.79
2024-05-09T12:49:19.284Z,66.86
2024-05-09T12:50:25.083Z,66.50
2024-05-09T12:51:18.041Z,66.04
2024-05-09T12:52:17.112Z,66.64
2024-05-09T12:53:17.053Z,66.56